createdAt,value
2017-07-27T00:00:02.472Z,16.91
2017-07-27T00:01:02.499Z,16.91
2017-07-27T00:02:02.570Z,16.91
2017-07-27T00:03:17.138Z,16.93
2017-07-27T00:04:02.561Z,16.94
2017-07-27T00:05:02.578Z,16.94
2017-07-27T00:06:02.606Z,16.94
2017-07-27T00:07:02.652Z,16.97
2017-07-27T00:08:02.656Z,16.96
2017-07-27T00:09:02.691Z,16.91
2017-07-27T00:10:02.705Z,17
2017-07-27T00:11:02.425Z,17.06
2017-07-27T00:12:02.740Z,16.97
2017-07-27T00:13:17.370Z,16.94
2017-07-27T00:14:02.818Z,16.93
2017-07-27T00:15:02.816Z,16.96
2017-07-27T00:16:02.846Z,16.91
2017-07-27T00:17:02.867Z,16.96
2017-07-27T00:18:02.896Z,16.97
2017-07-27T00:19:17.518Z,16.98
2017-07-27T00:20:02.643Z,16.91
2017-07-27T00:21:02.959Z,16.93
2017-07-27T00:22:02.995Z,16.94
2017-07-27T00:23:03.003Z,16.98
2017-07-27T00:24:03.050Z,16.96
2017-07-27T00:25:03.053Z,16.94
2017-07-27T00:27:03.113Z,16.97
2017-07-27T00:28:03.135Z,16.88
2017-07-27T00:29:03.140Z,16.83
2017-07-27T00:30:02.559Z,16.88
2017-07-27T00:31:17.820Z,16.94
2017-07-27T00:32:03.227Z,16.93
2017-07-27T00:33:02.944Z,16.93
2017-07-27T00:34:03.276Z,16.89
2017-07-27T00:35:17.896Z,16.94
2017-07-27T00:36:03.000Z,16.96
2017-07-27T00:37:03.333Z,16.89
2017-07-27T00:38:03.367Z,16.93
2017-07-27T00:40:03.425Z,16.97
2017-07-27T00:41:03.132Z,16.96
2017-07-27T00:42:03.477Z,16.93
2017-07-27T00:44:03.500Z,16.89
2017-07-27T00:45:03.552Z,16.94
2017-07-27T00:46:03.570Z,16.91
2017-07-27T00:47:03.563Z,16.91
2017-07-27T00:48:03.621Z,16.98
2017-07-27T00:49:03.617Z,16.94
2017-07-27T00:50:03.664Z,16.94
2017-07-27T00:51:18.289Z,16.86
2017-07-27T00:52:03.709Z,16.94
2017-07-27T00:53:03.415Z,16.96
2017-07-27T00:54:03.739Z,16.96
2017-07-27T00:55:03.781Z,16.88
2017-07-27T00:56:03.785Z,16.88
2017-07-27T00:57:18.425Z,16.82
2017-07-27T00:58:03.836Z,16.79
2017-07-27T00:59:03.868Z,16.83
2017-07-27T01:00:03.893Z,16.89
2017-07-27T01:02:03.944Z,16.89
2017-07-27T01:04:03.983Z,16.85
2017-07-27T01:05:04.020Z,16.81
2017-07-27T01:06:18.637Z,16.85
2017-07-27T01:07:04.058Z,16.86
2017-07-27T01:08:03.766Z,16.86
2017-07-27T01:09:04.104Z,16.88
2017-07-27T01:10:04.131Z,16.85
2017-07-27T01:11:04.161Z,16.82
2017-07-27T01:12:04.169Z,16.86
2017-07-27T01:14:18.819Z,16.81
2017-07-27T01:16:18.865Z,16.86
2017-07-27T01:17:04.306Z,16.86
2017-07-27T01:18:04.304Z,16.82
2017-07-27T01:19:04.347Z,16.83
2017-07-27T01:20:04.360Z,16.79
2017-07-27T01:21:04.393Z,16.86
2017-07-27T01:22:04.423Z,16.83
2017-07-27T01:23:04.430Z,16.83
2017-07-27T01:24:04.460Z,16.85
2017-07-27T01:25:04.489Z,16.83
2017-07-27T01:26:04.866Z,16.85
2017-07-27T01:27:04.537Z,16.85
2017-07-27T01:28:04.558Z,16.83
2017-07-27T01:29:04.578Z,16.88
2017-07-27T01:30:04.612Z,16.88
2017-07-27T01:31:04.626Z,16.83
2017-07-27T01:32:04.344Z,16.86
2017-07-27T01:33:04.685Z,16.94
2017-07-27T01:34:04.701Z,16.86
2017-07-27T01:35:04.721Z,16.91
2017-07-27T01:36:04.733Z,16.85
2017-07-27T01:37:04.766Z,16.82
2017-07-27T01:38:19.391Z,16.82
2017-07-27T01:39:04.818Z,16.83
2017-07-27T01:41:04.653Z,16.83
2017-07-27T01:42:04.571Z,16.81
2017-07-27T01:43:04.612Z,16.82
2017-07-27T01:44:19.539Z,16.81
2017-07-27T01:46:04.991Z,16.78
2017-07-27T01:47:04.989Z,16.83
2017-07-27T01:48:19.631Z,16.73
2017-07-27T01:49:04.748Z,16.76
2017-07-27T01:50:05.071Z,16.78
2017-07-27T01:52:04.506Z,16.78
2017-07-27T01:55:04.887Z,16.82
2017-07-27T01:56:05.224Z,16.88
2017-07-27T01:57:05.221Z,16.81
2017-07-27T01:58:05.281Z,16.82
2017-07-27T01:59:05.298Z,16.78
2017-07-27T02:00:05.318Z,16.81
2017-07-27T02:01:05.038Z,16.81
2017-07-27T02:02:05.362Z,16.85
2017-07-27T02:03:05.390Z,16.83
2017-07-27T02:04:05.395Z,16.81
2017-07-27T02:05:05.447Z,16.81
2017-07-27T02:06:05.455Z,16.71
2017-07-27T02:07:05.490Z,16.78
2017-07-27T02:08:05.498Z,16.81
2017-07-27T02:09:05.538Z,16.73
2017-07-27T02:10:20.149Z,16.78
2017-07-27T02:11:05.588Z,16.76
2017-07-27T02:12:05.594Z,16.81
2017-07-27T02:13:05.626Z,16.76
2017-07-27T02:14:05.633Z,16.78
2017-07-27T02:15:05.690Z,16.79
2017-07-27T02:16:05.691Z,16.79
2017-07-27T02:17:05.436Z,16.78
2017-07-27T02:18:05.747Z,16.75
2017-07-27T02:19:05.444Z,16.81
2017-07-27T02:20:05.792Z,16.78
2017-07-27T02:21:05.801Z,16.82
2017-07-27T02:22:05.538Z,16.81
2017-07-27T02:23:05.859Z,16.82
2017-07-27T02:24:05.876Z,16.83
2017-07-27T02:25:05.919Z,16.82
2017-07-27T02:26:20.531Z,16.82
2017-07-27T02:27:05.650Z,16.79
2017-07-27T02:28:05.986Z,16.75
2017-07-27T02:29:06.051Z,16.76
2017-07-27T02:30:06.032Z,16.73
2017-07-27T02:31:06.054Z,16.78
2017-07-27T02:32:06.095Z,16.78
2017-07-27T02:33:06.100Z,16.76
2017-07-27T02:34:06.133Z,16.75
2017-07-27T02:35:20.746Z,16.78
2017-07-27T02:36:06.174Z,16.75
2017-07-27T02:37:06.208Z,16.7
2017-07-27T02:38:06.225Z,16.75
2017-07-27T02:40:06.266Z,16.7
2017-07-27T02:41:20.886Z,16.66
2017-07-27T02:42:20.921Z,16.7
2017-07-27T02:43:06.333Z,16.68
2017-07-27T02:44:06.377Z,16.64
2017-07-27T02:45:06.389Z,16.71
2017-07-27T02:46:06.391Z,16.67
2017-07-27T02:47:06.438Z,16.81
2017-07-27T02:48:21.058Z,16.66
2017-07-27T02:49:06.170Z,16.7
2017-07-27T02:50:06.500Z,16.68
2017-07-27T02:51:06.220Z,16.76
2017-07-27T02:53:06.615Z,16.76
2017-07-27T02:54:06.612Z,16.78
2017-07-27T02:55:06.604Z,16.73
2017-07-27T02:56:06.657Z,16.75
2017-07-27T02:57:06.669Z,16.7
2017-07-27T02:58:06.705Z,16.68
2017-07-27T02:59:06.716Z,16.71
2017-07-27T03:00:06.785Z,16.63
2017-07-27T03:01:06.754Z,16.7
2017-07-27T03:02:06.790Z,16.78
2017-07-27T03:03:06.818Z,16.78
2017-07-27T03:04:06.844Z,16.76
2017-07-27T03:05:06.850Z,16.78
2017-07-27T03:06:06.885Z,16.73
2017-07-27T03:07:06.896Z,16.79
2017-07-27T03:08:06.937Z,16.78
2017-07-27T03:09:06.951Z,16.81
2017-07-27T03:10:06.991Z,16.81
2017-07-27T03:11:07.001Z,16.79
2017-07-27T03:12:07.034Z,16.78
2017-07-27T03:13:21.640Z,16.75
2017-07-27T03:15:07.108Z,16.76
2017-07-27T03:16:21.710Z,16.78
2017-07-27T03:17:07.200Z,16.81
2017-07-27T03:18:07.163Z,16.81
2017-07-27T03:19:07.200Z,16.67
2017-07-27T03:20:07.203Z,16.71
2017-07-27T03:21:07.262Z,16.78
2017-07-27T03:22:07.277Z,16.66
2017-07-27T03:23:07.281Z,16.78
2017-07-27T03:24:07.304Z,16.79
2017-07-27T03:25:07.333Z,16.75
2017-07-27T03:26:07.369Z,16.68
2017-07-27T03:27:07.392Z,16.7
2017-07-27T03:28:07.109Z,16.7
2017-07-27T03:29:22.028Z,16.78
2017-07-27T03:30:07.462Z,16.76
2017-07-27T03:32:07.204Z,16.76
2017-07-27T03:34:07.556Z,16.78
2017-07-27T03:35:07.251Z,16.79
2017-07-27T03:36:22.197Z,16.7
2017-07-27T03:37:07.614Z,16.75
2017-07-27T03:38:07.659Z,16.79
2017-07-27T03:39:07.705Z,16.71
2017-07-27T03:41:07.721Z,16.66
2017-07-27T03:42:07.428Z,16.67
2017-07-27T03:43:07.767Z,16.61
2017-07-27T03:44:07.795Z,16.61
2017-07-27T03:45:22.096Z,16.66
2017-07-27T03:46:07.830Z,16.68
2017-07-27T03:47:07.849Z,16.63
2017-07-27T03:48:07.895Z,16.68
2017-07-27T03:49:07.891Z,16.64
2017-07-27T03:50:07.952Z,16.66
2017-07-27T03:51:07.955Z,16.66
2017-07-27T03:52:07.987Z,16.64
2017-07-27T03:53:07.695Z,16.61
2017-07-27T03:54:08.026Z,16.63
2017-07-27T03:55:22.344Z,16.61
2017-07-27T03:56:07.811Z,16.67
2017-07-27T03:57:07.786Z,16.67
2017-07-27T03:58:08.103Z,16.66
2017-07-27T03:59:08.153Z,16.7
2017-07-27T04:00:08.174Z,16.64
2017-07-27T04:02:08.206Z,16.58
2017-07-27T04:03:08.243Z,16.63
2017-07-27T04:04:08.243Z,16.57
2017-07-27T04:05:08.294Z,16.56
2017-07-27T04:06:08.315Z,16.6
2017-07-27T04:07:08.328Z,16.56
2017-07-27T04:08:08.352Z,16.58
2017-07-27T04:09:08.390Z,16.58
2017-07-27T04:10:08.412Z,16.56
2017-07-27T04:11:08.422Z,16.52
2017-07-27T04:12:08.457Z,16.52
2017-07-27T04:13:08.476Z,16.49
2017-07-27T04:14:08.181Z,16.52
2017-07-27T04:15:08.536Z,16.49
2017-07-27T04:16:23.138Z,16.53
2017-07-27T04:17:08.575Z,16.52
2017-07-27T04:18:08.588Z,16.43
2017-07-27T04:19:08.618Z,16.52
2017-07-27T04:20:23.250Z,16.46
2017-07-27T04:21:08.663Z,16.48
2017-07-27T04:22:08.694Z,16.53
2017-07-27T04:23:08.702Z,16.49
2017-07-27T04:25:23.381Z,16.43
2017-07-27T04:26:08.806Z,16.49
2017-07-27T04:29:08.848Z,16.43
2017-07-27T04:30:08.893Z,16.48
2017-07-27T04:31:23.195Z,16.43
2017-07-27T04:33:08.644Z,16.43
2017-07-27T04:34:08.659Z,16.48
2017-07-27T04:35:08.712Z,16.52
2017-07-27T04:37:09.063Z,16.57
2017-07-27T04:38:09.081Z,16.56
2017-07-27T04:39:08.775Z,16.67
2017-07-27T04:40:08.809Z,16.68
2017-07-27T04:41:08.817Z,16.76
2017-07-27T04:42:08.863Z,16.86
2017-07-27T04:43:08.869Z,16.81
2017-07-27T04:45:09.272Z,16.97
2017-07-27T04:46:08.953Z,17.07
2017-07-27T04:47:08.969Z,17.01
2017-07-27T04:48:23.909Z,17.01
2017-07-27T04:49:09.027Z,17.12
2017-07-27T04:50:09.393Z,17.14
2017-07-27T04:51:09.394Z,17.15
2017-07-27T04:52:08.791Z,17.16
2017-07-27T04:53:09.442Z,17.25
2017-07-27T04:55:24.083Z,17.3
2017-07-27T04:56:09.194Z,17.28
2017-07-27T04:57:24.128Z,17.26
2017-07-27T04:58:09.241Z,17.28
2017-07-27T05:00:09.610Z,17.26
2017-07-27T05:01:09.325Z,17.28
2017-07-27T05:02:09.346Z,17.16
2017-07-27T05:03:09.364Z,17.22
2017-07-27T05:04:24.297Z,17.16
2017-07-27T05:05:24.310Z,17.22
2017-07-27T05:06:09.451Z,17.22
2017-07-27T05:07:09.765Z,17.18
2017-07-27T05:08:09.794Z,17.14
2017-07-27T05:09:09.824Z,17.19
2017-07-27T05:10:09.530Z,17.18
2017-07-27T05:12:09.889Z,17.22
2017-07-27T05:13:09.957Z,17.28
2017-07-27T05:14:09.932Z,17.37
2017-07-27T05:15:09.968Z,17.38
2017-07-27T05:16:09.991Z,17.44
2017-07-27T05:17:10.009Z,17.62
2017-07-27T05:18:10.034Z,18.1
2017-07-27T05:19:10.058Z,18.69
2017-07-27T05:20:24.690Z,19.99
2017-07-27T05:21:10.095Z,20.62
2017-07-27T05:22:10.144Z,21.03
2017-07-27T05:23:10.154Z,21.17
2017-07-27T05:24:10.176Z,20.88
2017-07-27T05:25:24.819Z,20.66
2017-07-27T05:27:10.254Z,20.24
2017-07-27T05:28:10.294Z,20.14
2017-07-27T05:29:10.309Z,20.33
2017-07-27T05:30:10.348Z,20.7
2017-07-27T05:32:10.392Z,22.03
2017-07-27T05:33:10.429Z,23.12
2017-07-27T05:34:10.451Z,24.21
2017-07-27T05:35:10.482Z,25.39
2017-07-27T05:36:25.093Z,25.98
2017-07-27T05:38:10.572Z,26.69
2017-07-27T05:39:10.599Z,27.04
2017-07-27T05:40:10.321Z,27.63
2017-07-27T05:41:10.652Z,27.77
2017-07-27T05:42:10.674Z,26.99
2017-07-27T05:43:10.701Z,27.24
2017-07-27T05:44:10.748Z,27.67
2017-07-27T05:45:10.461Z,27.75
2017-07-27T05:46:10.495Z,28.02
2017-07-27T05:47:10.841Z,28.12
2017-07-27T05:48:10.869Z,28.59
2017-07-27T05:49:10.889Z,28.43
2017-07-27T05:50:10.946Z,27.7
2017-07-27T05:51:25.553Z,27.69
2017-07-27T05:52:11.055Z,27.7
2017-07-27T05:53:11.009Z,27.62
2017-07-27T05:54:11.060Z,27.62
2017-07-27T05:55:11.110Z,26.76
2017-07-27T05:56:11.142Z,26.43
2017-07-27T05:57:11.158Z,26.17
2017-07-27T05:58:10.570Z,25.85
2017-07-27T05:59:11.225Z,25.58
2017-07-27T06:00:11.262Z,25.4
2017-07-27T06:01:11.290Z,25.52
2017-07-27T06:02:11.012Z,25.82
2017-07-27T06:03:11.356Z,26.82
2017-07-27T06:04:11.078Z,27.7
2017-07-27T06:05:11.417Z,28.78
2017-07-27T06:06:11.454Z,29.11
2017-07-27T06:07:11.468Z,28.98
2017-07-27T06:08:11.515Z,29.33
2017-07-27T06:09:11.541Z,29.7
2017-07-27T06:10:11.272Z,29.45
2017-07-27T06:11:11.609Z,29.85
2017-07-27T06:12:11.655Z,30.17
2017-07-27T06:13:11.687Z,29.7
2017-07-27T06:14:11.710Z,29.87
2017-07-27T06:15:11.744Z,29.78
2017-07-27T06:16:11.480Z,30.1
2017-07-27T06:17:11.503Z,30.58
2017-07-27T06:18:11.854Z,31.02
2017-07-27T06:19:11.573Z,31.46
2017-07-27T06:20:11.940Z,31.44
2017-07-27T06:21:11.942Z,30.69
2017-07-27T06:22:11.989Z,29.63
2017-07-27T06:23:26.619Z,29.23
2017-07-27T06:24:26.656Z,29.11
2017-07-27T06:25:12.097Z,29.51
2017-07-27T06:26:12.117Z,29.92
2017-07-27T06:27:12.171Z,30.05
2017-07-27T06:28:12.182Z,30.08
2017-07-27T06:29:11.931Z,29.98
2017-07-27T06:30:12.265Z,29.83
2017-07-27T06:31:26.900Z,29.86
2017-07-27T06:32:12.357Z,29.83
2017-07-27T06:33:12.350Z,30.31
2017-07-27T06:34:12.405Z,31.17
2017-07-27T06:35:12.434Z,31.46
2017-07-27T06:36:12.475Z,31.13
2017-07-27T06:37:12.203Z,30.34
2017-07-27T06:38:12.237Z,30.24
2017-07-27T06:39:27.170Z,29.8
2017-07-27T06:40:12.596Z,29.71
2017-07-27T06:41:12.658Z,29.85
2017-07-27T06:42:12.671Z,29.83
2017-07-27T06:43:12.709Z,29.68
2017-07-27T06:44:12.763Z,29.31
2017-07-27T06:45:12.801Z,28.96
2017-07-27T06:46:12.830Z,28.98
2017-07-27T06:47:12.855Z,29.39
2017-07-27T06:48:12.912Z,29.71
2017-07-27T06:49:12.933Z,30.15
2017-07-27T06:50:12.970Z,30.45
2017-07-27T06:51:13.001Z,30.42
2017-07-27T06:52:13.051Z,30.47
2017-07-27T06:53:13.080Z,30.62
2017-07-27T06:54:12.779Z,30.27
2017-07-27T06:55:27.740Z,30.07
2017-07-27T06:56:12.874Z,29.71
2017-07-27T06:57:12.896Z,29.95
2017-07-27T06:58:12.930Z,30.75
2017-07-27T06:59:12.981Z,30.6
2017-07-27T07:00:13.323Z,30.01
2017-07-27T07:01:13.045Z,29.65
2017-07-27T07:02:13.387Z,29.46
2017-07-27T07:04:13.149Z,29.65
2017-07-27T07:05:13.468Z,29.97
2017-07-27T07:06:13.530Z,30.76
2017-07-27T07:07:13.247Z,31.34
2017-07-27T07:08:13.609Z,31.69
2017-07-27T07:09:13.626Z,31.62
2017-07-27T07:10:13.670Z,31.92
2017-07-27T07:11:28.301Z,31.76
2017-07-27T07:12:13.751Z,31.72
2017-07-27T07:13:13.764Z,31.48
2017-07-27T07:14:13.808Z,31.88
2017-07-27T07:15:13.838Z,31.99
2017-07-27T07:16:13.885Z,32.23
2017-07-27T07:17:13.906Z,32.59
2017-07-27T07:18:13.949Z,32.14
2017-07-27T07:19:13.972Z,31.04
2017-07-27T07:20:14.007Z,30.76
2017-07-27T07:21:14.065Z,30.6
2017-07-27T07:23:14.139Z,30.13
2017-07-27T07:24:14.153Z,30.15
2017-07-27T07:25:14.216Z,30.64
2017-07-27T07:26:28.516Z,30.69
2017-07-27T07:27:13.953Z,30.67
2017-07-27T07:28:14.291Z,31.04
2017-07-27T07:29:14.031Z,31.04
2017-07-27T07:31:14.402Z,31.75
2017-07-27T07:32:14.449Z,32.18
2017-07-27T07:33:14.475Z,32.4
2017-07-27T07:34:14.520Z,32.75
2017-07-27T07:35:14.235Z,32.51
2017-07-27T07:36:14.596Z,32.1
2017-07-27T07:37:14.626Z,32.45
2017-07-27T07:38:14.655Z,32.48
2017-07-27T07:39:14.077Z,32.75
2017-07-27T07:40:14.738Z,33.07
2017-07-27T07:41:14.760Z,33.18
2017-07-27T07:42:14.812Z,32.74
2017-07-27T07:43:14.863Z,33.29
2017-07-27T07:44:14.892Z,32.94
2017-07-27T07:45:14.915Z,32.96
2017-07-27T07:46:14.975Z,33.37
2017-07-27T07:47:14.994Z,32.97
2017-07-27T07:48:15.035Z,33.32
2017-07-27T07:49:29.688Z,33.65
2017-07-27T07:52:15.164Z,32.77
2017-07-27T07:53:15.229Z,33.28
2017-07-27T07:54:14.990Z,33.45
2017-07-27T07:55:15.276Z,33.81
2017-07-27T07:57:15.042Z,33.6
2017-07-27T07:58:30.018Z,33.66
2017-07-27T07:59:15.481Z,33.94
2017-07-27T08:00:15.473Z,34
2017-07-27T08:01:15.205Z,34.12
2017-07-27T08:02:15.551Z,33.95
2017-07-27T08:03:15.576Z,33.56
2017-07-27T08:04:15.315Z,33.6
2017-07-27T08:05:15.660Z,33.5
2017-07-27T08:06:15.712Z,34.03
2017-07-27T08:07:15.719Z,33.72
2017-07-27T08:08:15.771Z,33.5
2017-07-27T08:09:30.409Z,33.6
2017-07-27T08:10:15.842Z,33.91
2017-07-27T08:12:15.921Z,33.75
2017-07-27T08:13:15.960Z,33.45
2017-07-27T08:14:30.591Z,33.38
2017-07-27T08:15:15.729Z,33.45
2017-07-27T08:16:15.755Z,33.57
2017-07-27T08:17:16.115Z,33.04
2017-07-27T08:18:15.848Z,33.07
2017-07-27T08:19:16.179Z,33.44
2017-07-27T08:21:30.856Z,33.63
2017-07-27T08:22:16.283Z,34
2017-07-27T08:23:16.321Z,34.02
2017-07-27T08:24:16.386Z,33.84
2017-07-27T08:25:16.413Z,33.42
2017-07-27T08:26:16.431Z,33.45
2017-07-27T08:28:16.520Z,33.12
2017-07-27T08:29:16.554Z,33.16
2017-07-27T08:30:31.188Z,33.68
2017-07-27T08:31:16.621Z,33.95
2017-07-27T08:32:16.661Z,33.72
2017-07-27T08:33:16.705Z,33.9
2017-07-27T08:34:16.734Z,34.02
2017-07-27T08:35:16.785Z,34
2017-07-27T08:36:16.826Z,34.47
2017-07-27T08:37:16.859Z,34.31
2017-07-27T08:38:16.560Z,34.19
2017-07-27T08:39:31.527Z,34.56
2017-07-27T08:40:16.971Z,34.31
2017-07-27T08:41:16.994Z,34.37
2017-07-27T08:42:16.723Z,34.52
2017-07-27T08:43:17.073Z,34.24
2017-07-27T08:44:17.105Z,34
2017-07-27T08:45:16.821Z,33.23
2017-07-27T08:46:31.784Z,33.68
2017-07-27T08:47:16.906Z,33.94
2017-07-27T08:48:16.942Z,34.16
2017-07-27T08:49:17.296Z,34.08
2017-07-27T08:50:17.346Z,33.76
2017-07-27T08:51:31.970Z,33.9
2017-07-27T08:52:17.395Z,33.51
2017-07-27T08:53:17.447Z,33.56
2017-07-27T08:54:17.465Z,33.18
2017-07-27T08:55:17.523Z,33.41
2017-07-27T08:56:17.554Z,33.63
2017-07-27T08:57:17.590Z,33.21
2017-07-27T08:58:17.637Z,33.45
2017-07-27T08:59:17.663Z,33.76
2017-07-27T09:00:17.696Z,34.08
2017-07-27T09:01:32.341Z,33.93
2017-07-27T09:02:17.449Z,34.02
2017-07-27T09:03:17.813Z,34.17
2017-07-27T09:04:17.835Z,34.5
2017-07-27T09:05:32.487Z,34.12
2017-07-27T09:06:17.915Z,34.22
2017-07-27T09:07:17.932Z,33.6
2017-07-27T09:08:17.671Z,33.39
2017-07-27T09:09:18.016Z,33.59
2017-07-27T09:10:17.441Z,33.09
2017-07-27T09:12:18.133Z,31.95
2017-07-27T09:13:18.168Z,31.47
2017-07-27T09:14:18.209Z,31.92
2017-07-27T09:15:17.924Z,32.18
2017-07-27T09:17:18.015Z,32.63
2017-07-27T09:18:18.340Z,33.15
2017-07-27T09:20:18.104Z,32.94
2017-07-27T09:21:18.148Z,32.56
2017-07-27T09:22:18.184Z,32.66
2017-07-27T09:23:18.510Z,32.43
2017-07-27T09:24:18.566Z,32.03
2017-07-27T09:25:18.599Z,30.95
2017-07-27T09:26:18.640Z,30.82
2017-07-27T09:27:18.661Z,31.38
2017-07-27T09:28:32.994Z,31.76
2017-07-27T09:30:33.060Z,32.23
2017-07-27T09:31:18.809Z,32.65
2017-07-27T09:32:18.834Z,33.16
2017-07-27T09:33:33.475Z,33.34
2017-07-27T09:34:18.900Z,32.92
2017-07-27T09:35:33.553Z,32.62
2017-07-27T09:36:18.973Z,32.4
2017-07-27T09:37:19.016Z,32.51
2017-07-27T09:38:19.036Z,32.45
2017-07-27T09:39:19.101Z,32.35
2017-07-27T09:40:19.100Z,32.22
2017-07-27T09:41:19.162Z,32.19
2017-07-27T09:42:33.481Z,31.58
2017-07-27T09:43:19.220Z,31.47
2017-07-27T09:44:18.943Z,31.1
2017-07-27T09:45:19.297Z,30.32
2017-07-27T09:46:19.317Z,30.23
2017-07-27T09:47:19.356Z,30.07
2017-07-27T09:48:19.378Z,30.07
2017-07-27T09:49:34.031Z,30.15
2017-07-27T09:50:19.446Z,30.05
2017-07-27T09:51:19.493Z,30.17
2017-07-27T09:52:19.534Z,30.04
2017-07-27T09:53:19.563Z,30.13
2017-07-27T09:54:19.579Z,30.45
2017-07-27T09:55:19.624Z,30.6
2017-07-27T09:56:19.651Z,30.47
2017-07-27T09:57:19.382Z,30.64
2017-07-27T09:58:19.711Z,30.22
2017-07-27T09:59:19.758Z,30.91
2017-07-27T10:00:19.771Z,30.72
2017-07-27T10:01:19.824Z,30.72
2017-07-27T10:02:19.862Z,30.76
2017-07-27T10:03:19.887Z,31.07
2017-07-27T10:04:19.922Z,31.28
2017-07-27T10:05:34.563Z,31.61
2017-07-27T10:06:19.979Z,31.28
2017-07-27T10:07:20.010Z,30.79
2017-07-27T10:08:20.053Z,30.11
2017-07-27T10:09:20.073Z,30
2017-07-27T10:10:20.126Z,30.24
2017-07-27T10:11:20.160Z,29.74
2017-07-27T10:12:20.176Z,29.85
2017-07-27T10:13:20.211Z,30.04
2017-07-27T10:14:20.233Z,30.13
2017-07-27T10:15:20.291Z,30.77
2017-07-27T10:16:34.914Z,31.07
2017-07-27T10:17:20.554Z,31.34
2017-07-27T10:18:34.975Z,31.19
2017-07-27T10:19:20.418Z,31.36
2017-07-27T10:20:20.138Z,31.21
2017-07-27T10:21:35.077Z,30.76
2017-07-27T10:22:20.193Z,31.02
2017-07-27T10:23:20.548Z,31.16
2017-07-27T10:25:20.624Z,31.51
2017-07-27T10:26:20.642Z,31.44
2017-07-27T10:27:20.685Z,31.21
2017-07-27T10:28:20.395Z,31.29
2017-07-27T10:29:20.754Z,31.26
2017-07-27T10:30:20.474Z,31.21
2017-07-27T10:31:20.493Z,31.21
2017-07-27T10:32:20.841Z,31.56
2017-07-27T10:33:20.581Z,31.35
2017-07-27T10:34:20.615Z,30.97
2017-07-27T10:35:20.930Z,30.91
2017-07-27T10:36:35.579Z,30.77
2017-07-27T10:37:21.004Z,30.75
2017-07-27T10:38:21.054Z,30.83
2017-07-27T10:39:20.748Z,30.65
2017-07-27T10:40:20.806Z,30.53
2017-07-27T10:41:21.141Z,30.35
2017-07-27T10:42:21.159Z,30.26
2017-07-27T10:43:21.215Z,30.34
2017-07-27T10:44:35.835Z,30.16
2017-07-27T10:45:21.257Z,30.32
2017-07-27T10:46:35.898Z,30.76
2017-07-27T10:47:21.340Z,30.79
2017-07-27T10:49:21.408Z,31.16
2017-07-27T10:50:21.424Z,30.94
2017-07-27T10:51:21.462Z,30.79
2017-07-27T10:53:21.511Z,30.95
2017-07-27T10:54:21.561Z,30.69
2017-07-27T10:55:21.586Z,30.82
2017-07-27T10:56:21.636Z,30.77
2017-07-27T10:57:21.657Z,30.72
2017-07-27T10:58:21.699Z,30.47
2017-07-27T10:59:21.727Z,30.45
2017-07-27T11:00:21.760Z,30.27
2017-07-27T11:01:21.778Z,30.27
2017-07-27T11:02:21.822Z,29.87
2017-07-27T11:03:21.862Z,29.83
2017-07-27T11:05:21.919Z,29.55
2017-07-27T11:06:21.937Z,29.45
2017-07-27T11:07:21.988Z,29.33
2017-07-27T11:08:36.617Z,29.14
2017-07-27T11:09:22.050Z,28.86
2017-07-27T11:10:22.060Z,28.95
2017-07-27T11:11:22.115Z,29.26
2017-07-27T11:12:22.141Z,29.31
2017-07-27T11:13:22.184Z,29.21
2017-07-27T11:14:36.796Z,28.92
2017-07-27T11:15:22.247Z,28.85
2017-07-27T11:17:36.900Z,28.73
2017-07-27T11:18:22.315Z,28.59
2017-07-27T11:19:22.358Z,28.81
2017-07-27T11:21:22.423Z,28.98
2017-07-27T11:22:22.455Z,28.74
2017-07-27T11:23:22.171Z,28.51
2017-07-27T11:24:37.118Z,28.34
2017-07-27T11:25:22.535Z,28.37
2017-07-27T11:26:22.601Z,28.07
2017-07-27T11:27:22.604Z,27.7
2017-07-27T11:29:22.682Z,27.85
2017-07-27T11:30:22.714Z,27.69
2017-07-27T11:32:22.774Z,27.09
2017-07-27T11:33:22.805Z,26.94
2017-07-27T11:34:22.828Z,26.81
2017-07-27T11:35:22.549Z,26.99
2017-07-27T11:37:22.926Z,26.99
2017-07-27T11:38:22.935Z,27.12
2017-07-27T11:39:22.988Z,27.1
2017-07-27T11:40:37.606Z,26.91
2017-07-27T11:41:23.048Z,26.92
2017-07-27T11:42:23.056Z,27.04
2017-07-27T11:43:23.126Z,26.8
2017-07-27T11:44:22.804Z,26.72
2017-07-27T11:45:23.162Z,26.57
2017-07-27T11:46:23.191Z,26.67
2017-07-27T11:47:23.225Z,26.28
2017-07-27T11:48:23.252Z,26.3
2017-07-27T11:50:23.313Z,26.1
2017-07-27T11:51:23.341Z,26.05
2017-07-27T11:52:23.358Z,25.91
2017-07-27T11:54:23.438Z,25.72
2017-07-27T11:55:23.447Z,25.64
2017-07-27T11:56:38.091Z,25.85
2017-07-27T11:57:23.528Z,25.94
2017-07-27T11:59:23.270Z,26.02
2017-07-27T12:00:23.601Z,25.98
2017-07-27T12:01:23.329Z,26.07
2017-07-27T12:02:23.664Z,26.29
2017-07-27T12:03:23.696Z,26.44
2017-07-27T12:04:23.722Z,26.35
2017-07-27T12:05:23.765Z,26.17
2017-07-27T12:06:23.775Z,25.99
2017-07-27T12:07:23.790Z,26.01
2017-07-27T12:08:23.534Z,25.99
2017-07-27T12:09:23.868Z,25.8
2017-07-27T12:10:23.882Z,25.6
2017-07-27T12:11:38.530Z,25.45
2017-07-27T12:12:23.944Z,25.36
2017-07-27T12:13:24.022Z,25.43
2017-07-27T12:14:23.705Z,25.21
2017-07-27T12:15:24.049Z,25.21
2017-07-27T12:16:23.754Z,25.25
2017-07-27T12:17:24.089Z,25.23
2017-07-27T12:18:24.131Z,25.2
2017-07-27T12:19:24.156Z,25.14
2017-07-27T12:20:24.209Z,25.21
2017-07-27T12:21:24.219Z,25.09
2017-07-27T12:23:24.271Z,25.46
2017-07-27T12:24:24.000Z,25.42
2017-07-27T12:25:24.334Z,25.33
2017-07-27T12:26:24.356Z,25.23
2017-07-27T12:27:24.394Z,25.27
2017-07-27T12:28:39.010Z,25.28
2017-07-27T12:29:24.444Z,25.18
2017-07-27T12:30:39.063Z,25.1
2017-07-27T12:31:24.502Z,24.91
2017-07-27T12:32:24.208Z,25.02
2017-07-27T12:33:24.572Z,24.98
2017-07-27T12:34:24.581Z,24.84
2017-07-27T12:35:24.315Z,24.81
2017-07-27T12:36:24.632Z,24.65
2017-07-27T12:37:24.376Z,24.6
2017-07-27T12:38:24.713Z,24.64
2017-07-27T12:39:24.733Z,24.55
2017-07-27T12:40:24.744Z,24.43
2017-07-27T12:41:24.800Z,24.6
2017-07-27T12:42:24.798Z,24.42
2017-07-27T12:43:39.445Z,24.4
2017-07-27T12:44:24.882Z,24.4
2017-07-27T12:45:24.914Z,24.3
2017-07-27T12:46:24.915Z,24.25
2017-07-27T12:47:24.642Z,24.15
2017-07-27T12:48:24.681Z,24.27
2017-07-27T12:49:25.013Z,24.25
2017-07-27T12:50:25.055Z,24.16
2017-07-27T12:51:25.066Z,24.1
2017-07-27T12:52:25.094Z,24.1
2017-07-27T12:53:25.120Z,24.22
2017-07-27T12:54:25.166Z,24.25
2017-07-27T12:55:24.873Z,24.13
2017-07-27T12:56:25.210Z,24.03
2017-07-27T12:57:25.237Z,23.9
2017-07-27T12:58:25.257Z,23.76
2017-07-27T12:59:39.901Z,23.58
2017-07-27T13:00:25.317Z,23.68
2017-07-27T13:01:25.358Z,23.61
2017-07-27T13:02:25.367Z,23.51
2017-07-27T13:03:25.142Z,23.48
2017-07-27T13:04:25.432Z,23.31
2017-07-27T13:05:25.453Z,23.15
2017-07-27T13:06:25.185Z,23.02
2017-07-27T13:07:25.214Z,23.04
2017-07-27T13:08:25.224Z,22.92
2017-07-27T13:09:39.868Z,22.91
2017-07-27T13:10:25.584Z,22.91
2017-07-27T13:11:25.620Z,22.77
2017-07-27T13:12:25.648Z,22.73
2017-07-27T13:13:25.696Z,22.57
2017-07-27T13:14:25.715Z,22.57
2017-07-27T13:15:40.027Z,22.62
2017-07-27T13:16:25.769Z,22.65
2017-07-27T13:17:25.490Z,22.79
2017-07-27T13:18:40.421Z,22.9
2017-07-27T13:19:25.854Z,22.91
2017-07-27T13:20:25.556Z,22.86
2017-07-27T13:21:25.895Z,22.91
2017-07-27T13:22:25.630Z,22.95
2017-07-27T13:23:25.651Z,23.17
2017-07-27T13:24:40.587Z,23.13
2017-07-27T13:25:26.011Z,23.12
2017-07-27T13:26:26.044Z,23
2017-07-27T13:27:26.060Z,22.92
2017-07-27T13:28:26.095Z,22.98
2017-07-27T13:29:26.122Z,23
2017-07-27T13:30:26.153Z,23.01
2017-07-27T13:31:40.803Z,23.15
2017-07-27T13:33:26.230Z,22.94
2017-07-27T13:34:26.267Z,23
2017-07-27T13:35:26.293Z,23
2017-07-27T13:36:26.324Z,23.01
2017-07-27T13:37:26.021Z,22.94
2017-07-27T13:38:26.354Z,23.04
2017-07-27T13:39:26.406Z,23.19
2017-07-27T13:41:26.466Z,23.02
2017-07-27T13:42:26.468Z,23.16
2017-07-27T13:44:26.530Z,23
2017-07-27T13:45:26.552Z,23.02
2017-07-27T13:46:41.196Z,22.83
2017-07-27T13:47:26.612Z,22.79
2017-07-27T13:48:26.641Z,22.67
2017-07-27T13:49:26.701Z,22.57
2017-07-27T13:50:26.708Z,22.57
2017-07-27T13:51:26.413Z,22.47
2017-07-27T13:52:26.445Z,22.33
2017-07-27T13:53:26.771Z,22.42
2017-07-27T13:54:26.500Z,22.49
2017-07-27T13:55:27.053Z,22.51